Aomori Airport
RJSA : now visible

Airfield :











YOU CAN JOIN US ON...

 
LOGIN :

Register | Disclaimer

   EN    FR    IT 

 









Legend :    VFR   Marginal VFR   IFR   Intensive IFR   Very Intensive IFR
Visi :
Ceiling :
>= 8 km
>= 3000ft
5 to 8 km
1000 to 3000 ft
1500m to 5 km
500 to 1000 ft
800 to 1500m
200 to 500 ft
< 800m
< 200 ft
Symbols :   Thunderstorms  Fog  Heavy snow  Heavy precipitations  Wind > 20 kt






- Airport Elevation : 664 ft
- IATA code : AOJ


RJSA - Aomori

CURRENT METAR :
  • 170101Z 24019G29KT 9999 FEW020 SCT045 BKN060 24/12 Q1006 RMK 1CU020 3CU045 6SC060 A2971

EXPIRED METARs :
  • 170100Z 24020KT 9999 FEW020 SCT045 BKN060 23/11 Q1006
  • 170008Z 23015G26KT 9999 FEW020 SCT040 BKN060 22/12 Q1005 RMK 1CU020 3CU040 6SC060 A2970
  • 162336Z 22015G25KT 9999 FEW020 SCT060 23/13 Q1005 RMK 1CU020 3SC060 A2970
  • 162300Z 21010KT 9999 FEW020 BKN070 20/13 Q1005
  • 162200Z 20012KT 9999 FEW015 SCT/// 20/13 Q1005
  • 162140Z 21012KT 9999 FEW030 SCT/// 20/13 Q1005 RMK 1CU030 A2968

TAF AMD TAF RJSA
Valid from the 17 at 00:00 until the 18 at 06:00 UTC


170029Z 1700/1806 24018KT 9999 FEW030
TEMPO 1700/1709 24022G32KT
RJJJ FIR / Asia



MET'MAP, your aeronautical weather chart ! - Copyright ORBIFLY December 2007 - Disclaimer

ORBIFLY MET'MAP TEAM :

Programming & Development : Alexandra Zaïnal
Original concept : Baudouin d'Aumeries
Technical & hardware support : Manuel Goepfert
Assistance : Marc-Olivier Méhu




SOURCES & CREDITS :

   NOAA       Earth
Advisory